sensor_id;sensor_type;location;lat;lon;timestamp;P1;durP1;ratioP1;P2;durP2;ratioP2
22673;SDS011;11504;43.334;21.918;2024-03-23T00:54:43;18.0;;;17.0;;
22673;SDS011;11504;43.334;21.918;2024-03-23T00:59:20;18.0;;;16.0;;
22673;SDS011;11504;43.334;21.918;2024-03-23T01:03:57;18.0;;;16.0;;
22673;SDS011;11504;43.334;21.918;2024-03-23T01:08:35;18.0;;;16.0;;
22673;SDS011;11504;43.334;21.918;2024-03-23T01:13:11;18.0;;;16.0;;
22673;SDS011;11504;43.334;21.918;2024-03-23T01:17:48;18.0;;;17.0;;
22673;SDS011;11504;43.334;21.918;2024-03-23T01:22:25;18.0;;;17.0;;
22673;SDS011;11504;43.334;21.918;2024-03-23T01:27:02;19.0;;;18.0;;
22673;SDS011;11504;43.334;21.918;2024-03-23T01:31:40;19.0;;;18.0;;
22673;SDS011;11504;43.334;21.918;2024-03-23T01:36:17;19.0;;;18.0;;
22673;SDS011;11504;43.334;21.918;2024-03-23T01:40:57;20.0;;;18.0;;
22673;SDS011;11504;43.334;21.918;2024-03-23T01:45:34;20.0;;;18.0;;
22673;SDS011;11504;43.334;21.918;2024-03-23T01:50:14;20.0;;;19.0;;
22673;SDS011;11504;43.334;21.918;2024-03-23T01:54:52;20.0;;;19.0;;
22673;SDS011;11504;43.334;21.918;2024-03-23T01:59:29;19.0;;;18.0;;
22673;SDS011;11504;43.334;21.918;2024-03-23T02:04:07;19.0;;;18.0;;
22673;SDS011;11504;43.334;21.918;2024-03-23T02:08:44;18.0;;;17.0;;
22673;SDS011;11504;43.334;21.918;2024-03-23T02:13:21;18.0;;;17.0;;
22673;SDS011;11504;43.334;21.918;2024-03-23T02:17:58;18.0;;;16.0;;
22673;SDS011;11504;43.334;21.918;2024-03-23T02:22:36;18.0;;;16.0;;
22673;SDS011;11504;43.334;21.918;2024-03-23T02:27:15;17.0;;;16.0;;
22673;SDS011;11504;43.334;21.918;2024-03-23T02:31:51;17.0;;;16.0;;
22673;SDS011;11504;43.334;21.918;2024-03-23T02:36:28;17.0;;;16.0;;
22673;SDS011;11504;43.334;21.918;2024-03-23T02:41:04;16.0;;;16.0;;
22673;SDS011;11504;43.334;21.918;2024-03-23T02:45:41;16.0;;;16.0;;
22673;SDS011;11504;43.334;21.918;2024-03-23T02:50:18;16.0;;;15.0;;
22673;SDS011;11504;43.334;21.918;2024-03-23T02:54:55;16.0;;;15.0;;
22673;SDS011;11504;43.334;21.918;2024-03-23T02:59:31;15.0;;;14.0;;
22673;SDS011;11504;43.334;21.918;2024-03-23T03:04:07;15.0;;;14.0;;
22673;SDS011;11504;43.334;21.918;2024-03-23T03:08:44;14.0;;;14.0;;
22673;SDS011;11504;43.334;21.918;2024-03-23T03:13:20;14.0;;;14.0;;
22673;SDS011;11504;43.334;21.918;2024-03-23T03:17:57;14.0;;;14.0;;
22673;SDS011;11504;43.334;21.918;2024-03-23T03:22:34;14.0;;;14.0;;
22673;SDS011;11504;43.334;21.918;2024-03-23T03:27:11;13.0;;;13.0;;
22673;SDS011;11504;43.334;21.918;2024-03-23T03:31:48;13.0;;;13.0;;
22673;SDS011;11504;43.334;21.918;2024-03-23T03:36:25;13.0;;;13.0;;
22673;SDS011;11504;43.334;21.918;2024-03-23T03:41:03;14.0;;;13.0;;
22673;SDS011;11504;43.334;21.918;2024-03-23T03:45:41;14.0;;;13.0;;
22673;SDS011;11504;43.334;21.918;2024-03-23T03:50:17;15.0;;;13.0;;
22673;SDS011;11504;43.334;21.918;2024-03-23T03:55:02;15.0;;;13.0;;
22673;SDS011;11504;43.334;21.918;2024-03-23T03:59:49;16.0;;;14.0;;
22673;SDS011;11504;43.334;21.918;2024-03-23T04:04:26;16.0;;;14.0;;
22673;SDS011;11504;43.334;21.918;2024-03-23T04:09:02;17.0;;;16.0;;
22673;SDS011;11504;43.334;21.918;2024-03-23T04:13:39;17.0;;;16.0;;
22673;SDS011;11504;43.334;21.918;2024-03-23T04:18:16;16.0;;;16.0;;
22673;SDS011;11504;43.334;21.918;2024-03-23T04:22:52;16.0;;;16.0;;
22673;SDS011;11504;43.334;21.918;2024-03-23T04:27:29;16.0;;;15.0;;
22673;SDS011;11504;43.334;21.918;2024-03-23T04:32:05;16.0;;;15.0;;
22673;SDS011;11504;43.334;21.918;2024-03-23T04:36:42;16.0;;;15.0;;
22673;SDS011;11504;43.334;21.918;2024-03-23T04:41:19;15.0;;;14.0;;
22673;SDS011;11504;43.334;21.918;2024-03-23T04:45:56;15.0;;;14.0;;
22673;SDS011;11504;43.334;21.918;2024-03-23T04:50:33;14.0;;;14.0;;
22673;SDS011;11504;43.334;21.918;2024-03-23T04:55:10;14.0;;;14.0;;
22673;SDS011;11504;43.334;21.918;2024-03-23T04:59:47;14.0;;;12.0;;
22673;SDS011;11504;43.334;21.918;2024-03-23T05:04:24;14.0;;;12.0;;
22673;SDS011;11504;43.334;21.918;2024-03-23T05:09:01;13.0;;;11.0;;
22673;SDS011;11504;43.334;21.918;2024-03-23T05:13:38;13.0;;;11.0;;
22673;SDS011;11504;43.334;21.918;2024-03-23T05:18:14;13.0;;;12.0;;
22673;SDS011;11504;43.334;21.918;2024-03-23T05:22:50;13.0;;;12.0;;
22673;SDS011;11504;43.334;21.918;2024-03-23T05:27:26;13.0;;;12.0;;
22673;SDS011;11504;43.334;21.918;2024-03-23T05:32:03;13.0;;;12.0;;
22673;SDS011;11504;43.334;21.918;2024-03-23T05:36:40;13.0;;;12.0;;
22673;SDS011;11504;43.334;21.918;2024-03-23T05:41:17;14.0;;;14.0;;
22673;SDS011;11504;43.334;21.918;2024-03-23T05:45:54;14.0;;;14.0;;
22673;SDS011;11504;43.334;21.918;2024-03-23T05:50:33;16.0;;;15.0;;
22673;SDS011;11504;43.334;21.918;2024-03-23T05:55:10;16.0;;;15.0;;
22673;SDS011;11504;43.334;21.918;2024-03-23T05:59:47;18.0;;;18.0;;
22673;SDS011;11504;43.334;21.918;2024-03-23T06:04:24;18.0;;;18.0;;
22673;SDS011;11504;43.334;21.918;2024-03-23T06:09:01;21.0;;;20.0;;
22673;SDS011;11504;43.334;21.918;2024-03-23T06:13:37;21.0;;;20.0;;
22673;SDS011;11504;43.334;21.918;2024-03-23T06:18:14;22.0;;;22.0;;
22673;SDS011;11504;43.334;21.918;2024-03-23T06:22:51;22.0;;;22.0;;
22673;SDS011;11504;43.334;21.918;2024-03-23T06:27:28;24.0;;;23.0;;
22673;SDS011;11504;43.334;21.918;2024-03-23T06:32:04;24.0;;;23.0;;
22673;SDS011;11504;43.334;21.918;2024-03-23T06:36:43;24.0;;;23.0;;
22673;SDS011;11504;43.334;21.918;2024-03-23T06:41:19;21.0;;;20.0;;
22673;SDS011;11504;43.334;21.918;2024-03-23T06:45:56;21.0;;;20.0;;
22673;SDS011;11504;43.334;21.918;2024-03-23T06:50:34;18.0;;;17.0;;
22673;SDS011;11504;43.334;21.918;2024-03-23T06:55:11;18.0;;;17.0;;
22673;SDS011;11504;43.334;21.918;2024-03-23T06:59:48;17.0;;;16.0;;
22673;SDS011;11504;43.334;21.918;2024-03-23T07:04:25;17.0;;;16.0;;
22673;SDS011;11504;43.334;21.918;2024-03-23T07:09:02;16.0;;;15.0;;
22673;SDS011;11504;43.334;21.918;2024-03-23T07:13:39;16.0;;;15.0;;
22673;SDS011;11504;43.334;21.918;2024-03-23T07:18:16;16.0;;;15.0;;
22673;SDS011;11504;43.334;21.918;2024-03-23T07:22:52;16.0;;;15.0;;
22673;SDS011;11504;43.334;21.918;2024-03-23T07:27:29;16.0;;;15.0;;
22673;SDS011;11504;43.334;21.918;2024-03-23T07:32:06;16.0;;;15.0;;
22673;SDS011;11504;43.334;21.918;2024-03-23T07:36:43;16.0;;;15.0;;
22673;SDS011;11504;43.334;21.918;2024-03-23T07:41:20;16.0;;;14.0;;
22673;SDS011;11504;43.334;21.918;2024-03-23T07:45:57;16.0;;;14.0;;
22673;SDS011;11504;43.334;21.918;2024-03-23T07:50:35;15.0;;;14.0;;
22673;SDS011;11504;43.334;21.918;2024-03-23T07:55:11;15.0;;;14.0;;
22673;SDS011;11504;43.334;21.918;2024-03-23T07:59:48;15.0;;;14.0;;
22673;SDS011;11504;43.334;21.918;2024-03-23T08:04:25;15.0;;;14.0;;
22673;SDS011;11504;43.334;21.918;2024-03-23T08:09:03;15.0;;;14.0;;
22673;SDS011;11504;43.334;21.918;2024-03-23T08:13:42;15.0;;;14.0;;
22673;SDS011;11504;43.334;21.918;2024-03-23T08:18:21;14.0;;;13.0;;
22673;SDS011;11504;43.334;21.918;2024-03-23T08:22:58;14.0;;;13.0;;
22673;SDS011;11504;43.334;21.918;2024-03-23T08:27:35;12.0;;;12.0;;
22673;SDS011;11504;43.334;21.918;2024-03-23T08:32:12;12.0;;;12.0;;
22673;SDS011;11504;43.334;21.918;2024-03-23T08:36:49;12.0;;;12.0;;
22673;SDS011;11504;43.334;21.918;2024-03-23T08:41:26;12.0;;;12.0;;
22673;SDS011;11504;43.334;21.918;2024-03-23T08:46:04;12.0;;;12.0;;
22673;SDS011;11504;43.334;21.918;2024-03-23T08:50:46;12.0;;;12.0;;
22673;SDS011;11504;43.334;21.918;2024-03-23T08:55:23;12.0;;;12.0;;
22673;SDS011;11504;43.334;21.918;2024-03-23T09:00:00;14.0;;;13.0;;
22673;SDS011;11504;43.334;21.918;2024-03-23T09:04:36;14.0;;;13.0;;
22673;SDS011;11504;43.334;21.918;2024-03-23T09:09:13;15.0;;;14.0;;
22673;SDS011;11504;43.334;21.918;2024-03-23T09:13:49;15.0;;;14.0;;
22673;SDS011;11504;43.334;21.918;2024-03-23T09:18:26;16.0;;;15.0;;
22673;SDS011;11504;43.334;21.918;2024-03-23T09:23:03;16.0;;;15.0;;
22673;SDS011;11504;43.334;21.918;2024-03-23T09:27:40;17.0;;;16.0;;
22673;SDS011;11504;43.334;21.918;2024-03-23T09:32:17;17.0;;;16.0;;
22673;SDS011;11504;43.334;21.918;2024-03-23T09:36:54;17.0;;;16.0;;
22673;SDS011;11504;43.334;21.918;2024-03-23T09:41:31;18.0;;;17.0;;
22673;SDS011;11504;43.334;21.918;2024-03-23T09:46:08;18.0;;;17.0;;
22673;SDS011;11504;43.334;21.918;2024-03-23T09:50:46;18.0;;;18.0;;
22673;SDS011;11504;43.334;21.918;2024-03-23T09:55:22;18.0;;;18.0;;
22673;SDS011;11504;43.334;21.918;2024-03-23T09:59:59;18.0;;;18.0;;
22673;SDS011;11504;43.334;21.918;2024-03-23T10:04:38;18.0;;;18.0;;
22673;SDS011;11504;43.334;21.918;2024-03-23T10:09:17;19.0;;;18.0;;
22673;SDS011;11504;43.334;21.918;2024-03-23T10:13:53;19.0;;;18.0;;
22673;SDS011;11504;43.334;21.918;2024-03-23T10:18:30;19.0;;;18.0;;
22673;SDS011;11504;43.334;21.918;2024-03-23T10:23:15;19.0;;;18.0;;
22673;SDS011;11504;43.334;21.918;2024-03-23T10:27:58;19.0;;;18.0;;
22673;SDS011;11504;43.334;21.918;2024-03-23T10:32:37;19.0;;;18.0;;
22673;SDS011;11504;43.334;21.918;2024-03-23T10:37:15;17.0;;;16.0;;
22673;SDS011;11504;43.334;21.918;2024-03-23T10:41:56;17.0;;;16.0;;
22673;SDS011;11504;43.334;21.918;2024-03-23T10:46:37;17.0;;;16.0;;
22673;SDS011;11504;43.334;21.918;2024-03-23T10:51:14;15.0;;;14.0;;
22673;SDS011;11504;43.334;21.918;2024-03-23T10:55:52;15.0;;;14.0;;
22673;SDS011;11504;43.334;21.918;2024-03-23T11:00:32;14.0;;;13.0;;
22673;SDS011;11504;43.334;21.918;2024-03-23T11:05:46;14.0;;;13.0;;
22673;SDS011;11504;43.334;21.918;2024-03-23T11:10:26;13.0;;;12.0;;
22673;SDS011;11504;43.334;21.918;2024-03-23T11:15:11;13.0;;;12.0;;
22673;SDS011;11504;43.334;21.918;2024-03-23T11:19:54;12.0;;;12.0;;
22673;SDS011;11504;43.334;21.918;2024-03-23T11:24:34;12.0;;;12.0;;
22673;SDS011;11504;43.334;21.918;2024-03-23T11:29:12;11.0;;;11.0;;
22673;SDS011;11504;43.334;21.918;2024-03-23T11:34:04;11.0;;;11.0;;
22673;SDS011;11504;43.334;21.918;2024-03-23T11:38:42;12.0;;;12.0;;
22673;SDS011;11504;43.334;21.918;2024-03-23T11:43:24;12.0;;;12.0;;
22673;SDS011;11504;43.334;21.918;2024-03-23T11:48:05;12.0;;;12.0;;
22673;SDS011;11504;43.334;21.918;2024-03-23T11:52:45;12.0;;;12.0;;
22673;SDS011;11504;43.334;21.918;2024-03-23T11:57:22;12.0;;;12.0;;
22673;SDS011;11504;43.334;21.918;2024-03-23T12:01:59;12.0;;;12.0;;
22673;SDS011;11504;43.334;21.918;2024-03-23T12:06:43;12.0;;;12.0;;
22673;SDS011;11504;43.334;21.918;2024-03-23T12:11:20;13.0;;;12.0;;
22673;SDS011;11504;43.334;21.918;2024-03-23T12:16:10;13.0;;;12.0;;
22673;SDS011;11504;43.334;21.918;2024-03-23T12:20:53;12.0;;;12.0;;
22673;SDS011;11504;43.334;21.918;2024-03-23T12:25:30;12.0;;;12.0;;
22673;SDS011;11504;43.334;21.918;2024-03-23T12:30:09;11.0;;;11.0;;
22673;SDS011;11504;43.334;21.918;2024-03-23T12:34:48;11.0;;;11.0;;
22673;SDS011;11504;43.334;21.918;2024-03-23T12:39:25;12.0;;;11.0;;
22673;SDS011;11504;43.334;21.918;2024-03-23T12:44:03;12.0;;;11.0;;
22673;SDS011;11504;43.334;21.918;2024-03-23T12:48:40;12.0;;;11.0;;
22673;SDS011;11504;43.334;21.918;2024-03-23T12:53:16;12.0;;;11.0;;
22673;SDS011;11504;43.334;21.918;2024-03-23T12:57:53;12.0;;;10.0;;
22673;SDS011;11504;43.334;21.918;2024-03-23T13:02:30;12.0;;;10.0;;
22673;SDS011;11504;43.334;21.918;2024-03-23T13:07:07;12.0;;;10.0;;
22673;SDS011;11504;43.334;21.918;2024-03-23T13:11:43;11.0;;;10.0;;
22673;SDS011;11504;43.334;21.918;2024-03-23T13:16:19;11.0;;;10.0;;
22673;SDS011;11504;43.334;21.918;2024-03-23T13:20:56;12.0;;;10.0;;
22673;SDS011;11504;43.334;21.918;2024-03-23T13:25:32;12.0;;;10.0;;
22673;SDS011;11504;43.334;21.918;2024-03-23T13:30:09;13.0;;;10.0;;
22673;SDS011;11504;43.334;21.918;2024-03-23T13:34:48;13.0;;;10.0;;
22673;SDS011;11504;43.334;21.918;2024-03-23T13:39:24;12.0;;;10.0;;
22673;SDS011;11504;43.334;21.918;2024-03-23T13:44:01;12.0;;;10.0;;
22673;SDS011;11504;43.334;21.918;2024-03-23T13:48:38;10.0;;;9.0;;
22673;SDS011;11504;43.334;21.918;2024-03-23T13:53:15;10.0;;;9.0;;
22673;SDS011;11504;43.334;21.918;2024-03-23T13:57:52;10.0;;;10.0;;
22673;SDS011;11504;43.334;21.918;2024-03-23T14:02:29;10.0;;;10.0;;
22673;SDS011;11504;43.334;21.918;2024-03-23T14:07:06;10.0;;;10.0;;
22673;SDS011;11504;43.334;21.918;2024-03-23T14:11:44;10.0;;;10.0;;
22673;SDS011;11504;43.334;21.918;2024-03-23T14:16:21;10.0;;;10.0;;
22673;SDS011;11504;43.334;21.918;2024-03-23T14:21:00;12.0;;;11.0;;
22673;SDS011;11504;43.334;21.918;2024-03-23T14:25:38;12.0;;;11.0;;
22673;SDS011;11504;43.334;21.918;2024-03-23T14:30:15;13.0;;;12.0;;
22673;SDS011;11504;43.334;21.918;2024-03-23T14:34:51;13.0;;;12.0;;
22673;SDS011;11504;43.334;21.918;2024-03-23T14:39:27;12.0;;;11.0;;
22673;SDS011;11504;43.334;21.918;2024-03-23T14:44:04;12.0;;;11.0;;
22673;SDS011;11504;43.334;21.918;2024-03-23T14:48:41;11.0;;;10.0;;
22673;SDS011;11504;43.334;21.918;2024-03-23T14:53:20;11.0;;;10.0;;
22673;SDS011;11504;43.334;21.918;2024-03-23T14:57:56;10.0;;;10.0;;
22673;SDS011;11504;43.334;21.918;2024-03-23T15:02:32;10.0;;;10.0;;
22673;SDS011;11504;43.334;21.918;2024-03-23T15:07:09;10.0;;;10.0;;
22673;SDS011;11504;43.334;21.918;2024-03-23T15:11:46;10.0;;;9.0;;
22673;SDS011;11504;43.334;21.918;2024-03-23T15:16:22;10.0;;;9.0;;
22673;SDS011;11504;43.334;21.918;2024-03-23T15:21:01;10.0;;;9.0;;
22673;SDS011;11504;43.334;21.918;2024-03-23T15:25:40;10.0;;;9.0;;
22673;SDS011;11504;43.334;21.918;2024-03-23T15:30:17;10.0;;;9.0;;
22673;SDS011;11504;43.334;21.918;2024-03-23T15:34:54;10.0;;;9.0;;
22673;SDS011;11504;43.334;21.918;2024-03-23T15:39:31;10.0;;;9.0;;
22673;SDS011;11504;43.334;21.918;2024-03-23T15:44:08;10.0;;;9.0;;
22673;SDS011;11504;43.334;21.918;2024-03-23T15:48:44;10.0;;;9.0;;
22673;SDS011;11504;43.334;21.918;2024-03-23T15:53:22;10.0;;;9.0;;
22673;SDS011;11504;43.334;21.918;2024-03-23T15:58:00;10.0;;;9.0;;
22673;SDS011;11504;43.334;21.918;2024-03-23T16:02:36;10.0;;;9.0;;
22673;SDS011;11504;43.334;21.918;2024-03-23T16:07:13;10.0;;;9.0;;
22673;SDS011;11504;43.334;21.918;2024-03-23T16:11:49;10.0;;;9.0;;
22673;SDS011;11504;43.334;21.918;2024-03-23T16:16:25;10.0;;;9.0;;
22673;SDS011;11504;43.334;21.918;2024-03-23T16:21:03;11.0;;;10.0;;
22673;SDS011;11504;43.334;21.918;2024-03-23T16:25:47;11.0;;;10.0;;
22673;SDS011;11504;43.334;21.918;2024-03-23T16:30:25;12.0;;;12.0;;
22673;SDS011;11504;43.334;21.918;2024-03-23T16:35:02;12.0;;;12.0;;
22673;SDS011;11504;43.334;21.918;2024-03-23T16:39:39;12.0;;;12.0;;
22673;SDS011;11504;43.334;21.918;2024-03-23T16:44:16;12.0;;;12.0;;
22673;SDS011;11504;43.334;21.918;2024-03-23T16:48:52;11.0;;;11.0;;
22673;SDS011;11504;43.334;21.918;2024-03-23T16:53:29;11.0;;;11.0;;
22673;SDS011;11504;43.334;21.918;2024-03-23T16:58:08;12.0;;;12.0;;
22673;SDS011;11504;43.334;21.918;2024-03-23T17:02:45;12.0;;;12.0;;
22673;SDS011;11504;43.334;21.918;2024-03-23T17:07:23;12.0;;;12.0;;
22673;SDS011;11504;43.334;21.918;2024-03-23T17:11:59;13.0;;;12.0;;
22673;SDS011;11504;43.334;21.918;2024-03-23T17:16:36;13.0;;;12.0;;
22673;SDS011;11504;43.334;21.918;2024-03-23T17:21:13;14.0;;;14.0;;
22673;SDS011;11504;43.334;21.918;2024-03-23T17:25:50;14.0;;;14.0;;
22673;SDS011;11504;43.334;21.918;2024-03-23T17:30:26;16.0;;;15.0;;
22673;SDS011;11504;43.334;21.918;2024-03-23T17:35:04;16.0;;;15.0;;
22673;SDS011;11504;43.334;21.918;2024-03-23T17:39:41;16.0;;;16.0;;
22673;SDS011;11504;43.334;21.918;2024-03-23T17:44:18;16.0;;;16.0;;
22673;SDS011;11504;43.334;21.918;2024-03-23T17:48:54;17.0;;;17.0;;
22673;SDS011;11504;43.334;21.918;2024-03-23T17:53:37;17.0;;;17.0;;
22673;SDS011;11504;43.334;21.918;2024-03-23T17:58:16;20.0;;;18.0;;
22673;SDS011;11504;43.334;21.918;2024-03-23T18:02:52;20.0;;;18.0;;
22673;SDS011;11504;43.334;21.918;2024-03-23T18:07:29;22.0;;;20.0;;
22673;SDS011;11504;43.334;21.918;2024-03-23T18:12:06;22.0;;;20.0;;
22673;SDS011;11504;43.334;21.918;2024-03-23T18:16:43;22.0;;;20.0;;
22673;SDS011;11504;43.334;21.918;2024-03-23T18:21:20;23.0;;;21.0;;
22673;SDS011;11504;43.334;21.918;2024-03-23T18:25:57;23.0;;;21.0;;
22673;SDS011;11504;43.334;21.918;2024-03-23T18:30:34;24.0;;;22.0;;
22673;SDS011;11504;43.334;21.918;2024-03-23T18:35:10;24.0;;;22.0;;
22673;SDS011;11504;43.334;21.918;2024-03-23T18:39:47;23.0;;;21.0;;
22673;SDS011;11504;43.334;21.918;2024-03-23T18:44:24;23.0;;;21.0;;
22673;SDS011;11504;43.334;21.918;2024-03-23T18:49:00;22.0;;;20.0;;
22673;SDS011;11504;43.334;21.918;2024-03-23T18:53:36;22.0;;;20.0;;
22673;SDS011;11504;43.334;21.918;2024-03-23T18:58:12;26.0;;;24.0;;
22673;SDS011;11504;43.334;21.918;2024-03-23T19:02:48;26.0;;;24.0;;
22673;SDS011;11504;43.334;21.918;2024-03-23T19:07:25;26.0;;;24.0;;
22673;SDS011;11504;43.334;21.918;2024-03-23T19:12:01;29.0;;;27.0;;
22673;SDS011;11504;43.334;21.918;2024-03-23T19:16:39;29.0;;;27.0;;
22673;SDS011;11504;43.334;21.918;2024-03-23T19:21:15;28.0;;;26.0;;
22673;SDS011;11504;43.334;21.918;2024-03-23T19:25:52;28.0;;;26.0;;
22673;SDS011;11504;43.334;21.918;2024-03-23T19:30:31;26.0;;;25.0;;
22673;SDS011;11504;43.334;21.918;2024-03-23T19:35:10;26.0;;;25.0;;
22673;SDS011;11504;43.334;21.918;2024-03-23T19:39:46;23.0;;;22.0;;
22673;SDS011;11504;43.334;21.918;2024-03-23T19:44:23;23.0;;;22.0;;
22673;SDS011;11504;43.334;21.918;2024-03-23T19:49:00;20.0;;;19.0;;
22673;SDS011;11504;43.334;21.918;2024-03-23T19:53:37;20.0;;;19.0;;
22673;SDS011;11504;43.334;21.918;2024-03-23T19:58:14;19.0;;;18.0;;
22673;SDS011;11504;43.334;21.918;2024-03-23T20:02:51;19.0;;;18.0;;
22673;SDS011;11504;43.334;21.918;2024-03-23T20:07:27;19.0;;;18.0;;
22673;SDS011;11504;43.334;21.918;2024-03-23T20:12:06;18.0;;;17.0;;
22673;SDS011;11504;43.334;21.918;2024-03-23T20:16:45;18.0;;;17.0;;
22673;SDS011;11504;43.334;21.918;2024-03-23T20:21:22;18.0;;;16.0;;
22673;SDS011;11504;43.334;21.918;2024-03-23T20:25:59;18.0;;;16.0;;
22673;SDS011;11504;43.334;21.918;2024-03-23T20:30:36;18.0;;;15.0;;
22673;SDS011;11504;43.334;21.918;2024-03-23T20:35:12;18.0;;;15.0;;
22673;SDS011;11504;43.334;21.918;2024-03-23T20:39:50;16.0;;;14.0;;
22673;SDS011;11504;43.334;21.918;2024-03-23T20:44:27;16.0;;;14.0;;
22673;SDS011;11504;43.334;21.918;2024-03-23T20:49:04;15.0;;;14.0;;
22673;SDS011;11504;43.334;21.918;2024-03-23T20:53:41;15.0;;;14.0;;
22673;SDS011;11504;43.334;21.918;2024-03-23T20:58:18;15.0;;;14.0;;
22673;SDS011;11504;43.334;21.918;2024-03-23T21:02:56;15.0;;;14.0;;
22673;SDS011;11504;43.334;21.918;2024-03-23T21:07:33;15.0;;;14.0;;
22673;SDS011;11504;43.334;21.918;2024-03-23T21:12:09;15.0;;;14.0;;
22673;SDS011;11504;43.334;21.918;2024-03-23T21:16:46;15.0;;;14.0;;
22673;SDS011;11504;43.334;21.918;2024-03-23T21:21:22;18.0;;;16.0;;
22673;SDS011;11504;43.334;21.918;2024-03-23T21:26:00;18.0;;;16.0;;
22673;SDS011;11504;43.334;21.918;2024-03-23T21:30:40;20.0;;;19.0;;
22673;SDS011;11504;43.334;21.918;2024-03-23T21:35:17;20.0;;;19.0;;
22673;SDS011;11504;43.334;21.918;2024-03-23T21:39:53;19.0;;;18.0;;
22673;SDS011;11504;43.334;21.918;2024-03-23T21:44:30;19.0;;;18.0;;
22673;SDS011;11504;43.334;21.918;2024-03-23T21:49:07;18.0;;;17.0;;
22673;SDS011;11504;43.334;21.918;2024-03-23T21:53:44;18.0;;;17.0;;
22673;SDS011;11504;43.334;21.918;2024-03-23T21:58:23;18.0;;;16.0;;
22673;SDS011;11504;43.334;21.918;2024-03-23T22:03:04;18.0;;;16.0;;
22673;SDS011;11504;43.334;21.918;2024-03-23T22:07:40;17.0;;;16.0;;
22673;SDS011;11504;43.334;21.918;2024-03-23T22:12:17;17.0;;;16.0;;
22673;SDS011;11504;43.334;21.918;2024-03-23T22:16:54;17.0;;;16.0;;
22673;SDS011;11504;43.334;21.918;2024-03-23T22:21:31;18.0;;;17.0;;
22673;SDS011;11504;43.334;21.918;2024-03-23T22:26:07;18.0;;;17.0;;
22673;SDS011;11504;43.334;21.918;2024-03-23T22:30:54;18.0;;;18.0;;
22673;SDS011;11504;43.334;21.918;2024-03-23T22:35:31;18.0;;;18.0;;
22673;SDS011;11504;43.334;21.918;2024-03-23T22:40:10;17.0;;;16.0;;
22673;SDS011;11504;43.334;21.918;2024-03-23T22:44:48;17.0;;;16.0;;
22673;SDS011;11504;43.334;21.918;2024-03-23T22:49:25;16.0;;;15.0;;
22673;SDS011;11504;43.334;21.918;2024-03-23T22:54:02;16.0;;;15.0;;
22673;SDS011;11504;43.334;21.918;2024-03-23T22:58:39;16.0;;;15.0;;
22673;SDS011;11504;43.334;21.918;2024-03-23T23:03:17;16.0;;;15.0;;
22673;SDS011;11504;43.334;21.918;2024-03-23T23:07:57;15.0;;;15.0;;
22673;SDS011;11504;43.334;21.918;2024-03-23T23:12:33;15.0;;;15.0;;
22673;SDS011;11504;43.334;21.918;2024-03-23T23:17:10;15.0;;;15.0;;
22673;SDS011;11504;43.334;21.918;2024-03-23T23:21:48;14.0;;;14.0;;
22673;SDS011;11504;43.334;21.918;2024-03-23T23:26:25;14.0;;;14.0;;
22673;SDS011;11504;43.334;21.918;2024-03-23T23:31:02;14.0;;;13.0;;
22673;SDS011;11504;43.334;21.918;2024-03-23T23:35:39;14.0;;;13.0;;
22673;SDS011;11504;43.334;21.918;2024-03-23T23:40:15;14.0;;;12.0;;
22673;SDS011;11504;43.334;21.918;2024-03-23T23:44:52;14.0;;;12.0;;
22673;SDS011;11504;43.334;21.918;2024-03-23T23:49:29;13.0;;;12.0;;
22673;SDS011;11504;43.334;21.918;2024-03-23T23:54:05;13.0;;;12.0;;
22673;SDS011;11504;43.334;21.918;2024-03-23T23:58:41;13.0;;;12.0;;
